This is the latest recevied weather packets stored in our database for station/object EA5JMY-10. If no packets are shown the sender has not sent any weather packets the latest 10 day(s).
| Time | Temp. | Humidity | Pressure | Rain* | Wind** | Luminosity | Snow |
|---|---|---|---|---|---|---|---|
| 1788557492 | 28.33° C | 68% | 1021.1 hPa | - | - | - | - |
| 1788556592 | 28.33° C | 66% | 1021.1 hPa | - | - | - | - |
| 1788555692 | 28.89° C | 64% | 1021.2 hPa | - | - | - | - |
| 1788554792 | 28.89° C | 63% | 1021.1 hPa | - | - | - | - |
| 1788553891 | 29.44° C | 63% | 1020.9 hPa | - | - | - | - |
| 1788552991 | 29.44° C | 64% | 1020.7 hPa | - | - | - | - |
| 1788552091 | 29.44° C | 65% | 1020.5 hPa | - | - | - | - |
| 1788551190 | 29.44° C | 66% | 1020.4 hPa | - | - | - | - |
| 1788550290 | 30° C | 66% | 1020.1 hPa | - | - | - | - |
| 1788549390 | 30° C | 65% | 1019.9 hPa | - | - | - | - |
| 1788548490 | 30.56° C | 62% | 1019.7 hPa | - | - | - | - |
| 1788547589 | 31.11° C | 59% | 1019.5 hPa | - | - | - | - |
| 1788546689 | 31.67° C | 52% | 1019.1 hPa | - | - | - | - |
| 1788545789 | 32.78° C | 47% | 1019.2 hPa | - | - | - | - |
| 1788544889 | 33.89° C | 45% | 1019 hPa | - | - | - | - |
| 1788543989 | 34.44° C | 41% | 1018.9 hPa | - | - | - | - |
| 1788543089 | 35° C | 40% | 1018.8 hPa | - | - | - | - |
| 1788542189 | 36.11° C | 38% | 1018.8 hPa | - | - | - | - |
| 1788541288 | 37.22° C | 35% | 1018.7 hPa | - | - | - | - |
| 1788540388 | 36.67° C | 36% | 1018.6 hPa | - | - | - | - |
| 1788539488 | 36.67° C | 35% | 1018.7 hPa | - | - | - | - |
| 1788538588 | 37.78° C | 34% | 1019 hPa | - | - | - | - |
| 1788537688 | 37.22° C | 35% | 1019 hPa | - | - | - | - |
| 1788536788 | 37.22° C | 36% | 1019 hPa | - | - | - | - |
| 1788535888 | 37.22° C | 36% | 1018.9 hPa | - | - | - | - |
* Rain since midnight (hover to see other rain measurements)
** Current wind speed in m/s (hover to see current wind gust speed)